createdAt,value
2022-08-22T00:00:13.322Z,17.90
2022-08-22T00:02:44.407Z,19.20
2022-08-22T00:02:46.942Z,19.40
2022-08-22T00:02:47.890Z,22.50
2022-08-22T00:02:49.499Z,19.60
2022-08-22T00:02:53.912Z,20.60
2022-08-22T00:03:00.667Z,19.90
2022-08-22T00:06:10.642Z,18.00
2022-08-22T00:08:43.804Z,18.00
2022-08-22T00:11:16.847Z,18.00
2022-08-22T00:14:18.823Z,18.00
2022-08-22T00:16:56.242Z,18.00
2022-08-22T00:19:41.634Z,18.10
2022-08-22T00:22:28.286Z,18.00
2022-08-22T00:25:26.248Z,18.10
2022-08-22T00:27:56.793Z,18.10
2022-08-22T00:30:25.159Z,18.10
2022-08-22T00:32:58.067Z,18.20
2022-08-22T00:35:45.298Z,18.10
2022-08-22T00:38:27.887Z,18.20
2022-08-22T00:41:07.967Z,18.30
2022-08-22T00:43:56.403Z,18.30
2022-08-22T00:47:05.258Z,18.30
2022-08-22T00:49:51.040Z,18.30
2022-08-22T00:52:40.075Z,18.30
2022-08-22T00:55:13.831Z,18.20
2022-08-22T00:57:54.516Z,18.20
2022-08-22T01:00:25.807Z,18.10
2022-08-22T01:03:11.211Z,18.10
2022-08-22T01:06:05.359Z,18.10
2022-08-22T01:08:51.393Z,18.10
2022-08-22T01:11:51.997Z,18.00
2022-08-22T01:14:34.876Z,18.00
2022-08-22T01:17:20.399Z,18.00
2022-08-22T01:20:15.489Z,18.00
2022-08-22T01:23:01.046Z,17.90
2022-08-22T01:26:22.497Z,17.90
2022-08-22T01:29:12.199Z,18.00
2022-08-22T01:32:20.606Z,17.90
2022-08-22T01:34:53.828Z,18.00
2022-08-22T01:37:43.631Z,18.00
2022-08-22T01:40:26.050Z,18.00
2022-08-22T01:43:58.894Z,18.00
2022-08-22T01:46:50.758Z,18.00
2022-08-22T01:49:24.501Z,18.00
2022-08-22T01:52:16.105Z,17.90
2022-08-22T01:55:03.278Z,17.90
2022-08-22T01:57:30.639Z,17.90
2022-08-22T02:00:01.952Z,17.90
2022-08-22T02:02:58.051Z,17.90
2022-08-22T02:05:46.258Z,17.90
2022-08-22T02:08:30.435Z,18.00
2022-08-22T02:11:05.403Z,18.00
2022-08-22T02:13:57.554Z,18.00
2022-08-22T02:16:38.326Z,18.00
2022-08-22T02:19:11.683Z,18.00
2022-08-22T02:21:55.587Z,18.10
2022-08-22T02:24:37.934Z,18.00
2022-08-22T02:27:11.186Z,18.10
2022-08-22T02:29:48.455Z,18.10
2022-08-22T02:32:40.840Z,18.10
2022-08-22T02:35:34.326Z,18.00
2022-08-22T02:38:23.663Z,18.10
2022-08-22T02:40:53.753Z,18.00
2022-08-22T02:43:41.639Z,18.10
2022-08-22T02:46:28.347Z,18.10
2022-08-22T02:49:18.227Z,18.10
2022-08-22T02:52:04.178Z,18.10
2022-08-22T02:54:41.951Z,18.10
2022-08-22T02:57:14.244Z,18.10
2022-08-22T03:00:32.072Z,18.10
2022-08-22T03:03:25.319Z,18.10
2022-08-22T03:06:01.721Z,18.10
2022-08-22T03:08:42.936Z,18.10
2022-08-22T03:11:26.231Z,18.10
2022-08-22T03:14:04.763Z,18.00
2022-08-22T03:16:36.280Z,18.00
2022-08-22T03:19:14.861Z,18.00
2022-08-22T03:22:03.820Z,18.00
2022-08-22T03:24:39.076Z,18.00
2022-08-22T03:27:10.606Z,17.90
2022-08-22T03:29:45.171Z,17.90
2022-08-22T03:32:39.122Z,17.90
2022-08-22T03:35:12.032Z,17.80
2022-08-22T03:37:44.197Z,17.80
2022-08-22T03:40:42.466Z,17.70
2022-08-22T03:43:15.727Z,17.80
2022-08-22T03:46:18.602Z,17.80
2022-08-22T03:49:08.440Z,17.80
2022-08-22T03:51:38.567Z,17.70
2022-08-22T03:54:26.411Z,17.70
2022-08-22T03:57:35.521Z,17.70
2022-08-22T04:00:47.055Z,17.60
2022-08-22T04:03:52.442Z,17.60
2022-08-22T04:06:48.582Z,17.60
2022-08-22T04:09:50.023Z,17.60
2022-08-22T04:12:27.496Z,17.60
2022-08-22T04:15:33.520Z,17.50
2022-08-22T04:18:25.481Z,17.40
2022-08-22T04:20:58.586Z,17.30
2022-08-22T04:23:36.964Z,17.20
2022-08-22T04:26:19.163Z,17.20
2022-08-22T04:29:02.846Z,17.20
2022-08-22T04:31:41.503Z,17.20
2022-08-22T04:34:36.687Z,17.20
2022-08-22T04:37:14.622Z,17.20
2022-08-22T04:40:11.197Z,17.20
2022-08-22T04:42:45.410Z,17.20
2022-08-22T04:45:18.407Z,17.20
2022-08-22T04:47:54.522Z,17.20
2022-08-22T04:50:43.217Z,17.20
2022-08-22T04:53:23.313Z,17.20
2022-08-22T04:56:11.571Z,17.20
2022-08-22T04:58:46.513Z,17.20
2022-08-22T05:01:25.735Z,17.20
2022-08-22T05:04:05.613Z,17.20
2022-08-22T05:06:36.942Z,17.20
2022-08-22T05:09:16.001Z,17.20
2022-08-22T05:11:46.215Z,17.20
2022-08-22T05:14:27.970Z,17.10
2022-08-22T05:16:57.903Z,17.10
2022-08-22T05:19:33.206Z,17.10
2022-08-22T05:22:01.914Z,17.10
2022-08-22T05:24:35.058Z,17.10
2022-08-22T05:27:14.481Z,17.10
2022-08-22T05:29:46.216Z,17.00
2022-08-22T05:32:24.411Z,17.00
2022-08-22T05:34:58.241Z,17.10
2022-08-22T05:37:33.019Z,17.00
2022-08-22T05:40:01.804Z,17.10
2022-08-22T05:42:34.891Z,17.10
2022-08-22T05:45:06.405Z,17.10
2022-08-22T05:47:44.759Z,17.20
2022-08-22T05:50:43.207Z,17.20
2022-08-22T05:53:12.667Z,17.30
2022-08-22T05:56:02.919Z,17.30
2022-08-22T05:58:43.987Z,17.40
2022-08-22T06:01:35.547Z,17.40
2022-08-22T06:04:14.791Z,17.50
2022-08-22T06:07:01.053Z,17.60
2022-08-22T06:10:02.612Z,17.60
2022-08-22T06:12:33.559Z,17.50
2022-08-22T06:15:42.820Z,17.40
2022-08-22T06:18:14.951Z,17.40
2022-08-22T06:20:42.262Z,17.40
2022-08-22T06:23:26.609Z,17.40
2022-08-22T06:25:58.769Z,17.50
2022-08-22T06:28:32.539Z,17.60
2022-08-22T06:31:03.443Z,17.60
2022-08-22T06:33:36.350Z,17.50
2022-08-22T06:36:30.986Z,17.60
2022-08-22T06:39:16.854Z,17.60
2022-08-22T06:42:14.637Z,17.70
2022-08-22T06:45:03.932Z,17.70
2022-08-22T06:47:39.011Z,17.80
2022-08-22T06:50:14.149Z,17.80
2022-08-22T06:53:01.351Z,17.80
2022-08-22T06:55:30.552Z,17.80
2022-08-22T06:58:04.065Z,17.90
2022-08-22T07:00:34.531Z,17.90
2022-08-22T07:03:15.343Z,18.00
2022-08-22T07:05:43.623Z,18.00
2022-08-22T07:08:15.375Z,18.00
2022-08-22T07:10:45.799Z,18.00
2022-08-22T07:13:16.368Z,18.10
2022-08-22T07:15:43.915Z,18.10
2022-08-22T07:18:21.695Z,18.10
2022-08-22T07:20:56.096Z,18.10
2022-08-22T07:23:40.463Z,18.20
2022-08-22T07:26:21.320Z,18.30
2022-08-22T07:29:02.544Z,18.50
2022-08-22T07:31:40.011Z,18.50
2022-08-22T07:34:27.524Z,18.50
2022-08-22T07:36:58.668Z,18.50
2022-08-22T07:39:51.996Z,18.50
2022-08-22T07:42:35.532Z,18.50
2022-08-22T07:45:09.552Z,18.50
2022-08-22T07:47:49.523Z,18.50
2022-08-22T07:50:24.532Z,18.60
2022-08-22T07:52:53.307Z,18.60
2022-08-22T07:55:23.717Z,18.70
2022-08-22T07:57:58.017Z,18.80
2022-08-22T08:00:26.441Z,19.00
2022-08-22T08:03:01.214Z,19.10
2022-08-22T08:05:32.574Z,19.20
2022-08-22T08:08:04.168Z,19.20
2022-08-22T08:10:36.655Z,19.20
2022-08-22T08:13:09.531Z,19.30
2022-08-22T08:15:39.466Z,19.30
2022-08-22T08:18:13.200Z,19.30
2022-08-22T08:20:40.599Z,19.20
2022-08-22T08:23:10.660Z,19.10
2022-08-22T08:26:05.496Z,19.10
2022-08-22T08:28:38.568Z,19.10
2022-08-22T08:31:16.043Z,19.20
2022-08-22T08:33:47.206Z,19.30
2022-08-22T08:36:23.716Z,19.40
2022-08-22T08:39:10.177Z,19.50
2022-08-22T08:42:29.559Z,19.60
2022-08-22T08:45:22.060Z,19.70
2022-08-22T08:48:01.317Z,19.70
2022-08-22T08:50:53.899Z,19.70
2022-08-22T08:53:53.766Z,19.70
2022-08-22T08:56:54.477Z,19.60
2022-08-22T08:59:30.934Z,19.30
2022-08-22T09:02:44.226Z,19.10
2022-08-22T09:05:21.958Z,19.10
2022-08-22T09:08:29.086Z,19.20
2022-08-22T09:11:28.349Z,19.30
2022-08-22T09:14:08.951Z,19.30
2022-08-22T09:17:27.289Z,19.30
2022-08-22T09:20:01.358Z,19.30
2022-08-22T09:22:52.962Z,19.20
2022-08-22T09:25:25.595Z,19.30
2022-08-22T09:28:01.766Z,19.50
2022-08-22T09:31:21.925Z,19.60
2022-08-22T09:34:12.599Z,19.60
2022-08-22T09:37:04.447Z,19.60
2022-08-22T09:39:46.502Z,19.70
2022-08-22T09:42:29.028Z,19.80
2022-08-22T09:45:19.093Z,19.90
2022-08-22T09:48:07.642Z,19.90
2022-08-22T09:50:52.674Z,19.90
2022-08-22T09:53:54.230Z,19.90
2022-08-22T09:56:39.896Z,19.80
2022-08-22T09:59:22.366Z,19.70
2022-08-22T10:02:16.910Z,19.70
2022-08-22T10:05:14.008Z,19.80
2022-08-22T10:08:07.381Z,19.90
2022-08-22T10:11:02.737Z,19.80
2022-08-22T10:13:34.163Z,19.50
2022-08-22T10:16:39.610Z,19.50
2022-08-22T10:19:30.589Z,19.50
2022-08-22T10:22:23.616Z,19.50
2022-08-22T10:25:07.494Z,19.50
2022-08-22T10:28:02.602Z,19.40
2022-08-22T10:31:15.314Z,19.40
2022-08-22T10:33:54.903Z,19.40
2022-08-22T10:36:38.989Z,19.30
2022-08-22T10:39:14.224Z,19.30
2022-08-22T10:41:45.508Z,19.30
2022-08-22T10:44:12.857Z,19.30
2022-08-22T10:47:01.180Z,19.30
2022-08-22T10:49:44.532Z,19.30
2022-08-22T10:52:27.450Z,19.50
2022-08-22T10:55:21.440Z,19.60
2022-08-22T10:58:13.730Z,19.60
2022-08-22T11:00:49.943Z,19.50
2022-08-22T11:03:35.593Z,19.50
2022-08-22T11:06:29.371Z,19.60
2022-08-22T11:09:15.456Z,19.70
2022-08-22T11:12:11.766Z,19.50
2022-08-22T11:14:56.610Z,19.40
2022-08-22T11:17:46.323Z,19.30
2022-08-22T11:20:29.419Z,19.30
2022-08-22T11:23:12.391Z,19.20
2022-08-22T11:25:53.830Z,19.20
2022-08-22T11:28:35.289Z,19.30
2022-08-22T11:31:07.099Z,19.40
2022-08-22T11:33:47.700Z,19.50
2022-08-22T11:36:18.200Z,19.60
2022-08-22T11:38:59.536Z,19.80
2022-08-22T11:41:41.254Z,20.00
2022-08-22T11:44:50.437Z,20.20
2022-08-22T11:47:26.685Z,20.40
2022-08-22T11:50:02.276Z,20.40
2022-08-22T11:52:29.956Z,20.40
2022-08-22T11:55:19.283Z,20.60
2022-08-22T11:57:51.380Z,20.70
2022-08-22T12:00:48.552Z,20.70
2022-08-22T12:03:23.336Z,20.70
2022-08-22T12:06:15.570Z,20.80
2022-08-22T12:08:51.571Z,20.70
2022-08-22T12:11:35.686Z,20.80
2022-08-22T12:14:08.174Z,20.70
2022-08-22T12:16:50.857Z,20.70
2022-08-22T12:19:27.343Z,20.50
2022-08-22T12:22:36.053Z,20.30
2022-08-22T12:25:23.707Z,20.10
2022-08-22T12:28:05.153Z,20.00
2022-08-22T12:30:48.355Z,20.00
2022-08-22T12:33:40.925Z,20.10
2022-08-22T12:36:49.960Z,20.40
2022-08-22T12:39:34.246Z,20.60
2022-08-22T12:42:18.717Z,20.70
2022-08-22T12:45:20.053Z,20.70
2022-08-22T12:48:14.671Z,20.70
2022-08-22T12:51:01.883Z,20.80
2022-08-22T12:53:35.961Z,20.90
2022-08-22T12:56:17.019Z,21.00
2022-08-22T12:59:05.678Z,21.20
2022-08-22T13:01:43.365Z,21.30
2022-08-22T13:04:29.744Z,21.30
2022-08-22T13:07:24.783Z,21.40
2022-08-22T13:10:22.081Z,21.70
2022-08-22T13:12:54.264Z,21.80
2022-08-22T13:15:22.076Z,21.90
2022-08-22T13:17:53.493Z,21.90
2022-08-22T13:20:43.617Z,21.80
2022-08-22T13:23:34.299Z,21.70
2022-08-22T13:26:12.605Z,21.50
2022-08-22T13:29:23.928Z,21.30
2022-08-22T13:31:55.147Z,21.10
2022-08-22T13:34:39.857Z,20.90
2022-08-22T13:37:14.727Z,20.90
2022-08-22T13:39:46.144Z,20.80
2022-08-22T13:42:29.989Z,20.70
2022-08-22T13:45:05.033Z,20.70
2022-08-22T13:47:35.750Z,20.70
2022-08-22T13:50:17.491Z,20.60
2022-08-22T13:53:04.935Z,20.40
2022-08-22T13:56:01.237Z,20.20
2022-08-22T13:58:54.303Z,20.10
2022-08-22T14:01:37.844Z,20.00
2022-08-22T14:04:36.258Z,19.80
2022-08-22T14:07:04.467Z,19.70
2022-08-22T14:09:58.603Z,19.70
2022-08-22T14:12:33.486Z,19.60
2022-08-22T14:15:24.941Z,19.60
2022-08-22T14:18:00.689Z,19.60
2022-08-22T14:20:33.848Z,19.70
2022-08-22T14:23:11.971Z,19.70
2022-08-22T14:25:43.263Z,19.70
2022-08-22T14:28:30.527Z,19.70
2022-08-22T14:31:14.329Z,19.70
2022-08-22T14:33:50.370Z,19.70
2022-08-22T14:36:22.735Z,19.60
2022-08-22T14:38:57.095Z,19.60
2022-08-22T14:41:59.395Z,19.60
2022-08-22T14:45:06.757Z,19.60
2022-08-22T14:47:55.492Z,19.50
2022-08-22T14:50:55.644Z,19.40
2022-08-22T14:53:30.271Z,19.40
2022-08-22T14:56:22.131Z,19.40
2022-08-22T14:58:56.557Z,19.50
2022-08-22T15:01:29.850Z,19.60
2022-08-22T15:04:10.839Z,19.60
2022-08-22T15:06:53.172Z,19.50
2022-08-22T15:09:40.546Z,19.50
2022-08-22T15:12:24.058Z,19.50
2022-08-22T15:14:56.096Z,19.60
2022-08-22T15:17:38.926Z,19.60
2022-08-22T15:20:45.475Z,19.60
2022-08-22T15:23:24.279Z,19.60
2022-08-22T15:26:05.022Z,19.60
2022-08-22T15:28:52.314Z,19.60
2022-08-22T15:31:21.587Z,19.60
2022-08-22T15:33:51.017Z,19.50
2022-08-22T15:36:25.617Z,19.50
2022-08-22T15:39:30.450Z,19.50
2022-08-22T15:41:59.882Z,19.50
2022-08-22T15:44:33.578Z,19.50
2022-08-22T15:47:24.005Z,19.50
2022-08-22T15:49:58.296Z,19.50
2022-08-22T15:52:32.476Z,19.50
2022-08-22T15:55:19.050Z,19.40
2022-08-22T15:58:02.869Z,19.40
2022-08-22T16:00:36.054Z,19.40
2022-08-22T16:03:23.302Z,19.30
2022-08-22T16:05:55.782Z,19.30
2022-08-22T16:08:41.978Z,19.20
2022-08-22T16:11:21.355Z,19.20
2022-08-22T16:14:21.572Z,19.10
2022-08-22T16:17:01.238Z,19.10
2022-08-22T16:19:33.654Z,19.00
2022-08-22T16:22:01.023Z,19.10
2022-08-22T16:24:33.885Z,19.00
2022-08-22T16:27:20.821Z,19.00
2022-08-22T16:29:48.473Z,19.00
2022-08-22T16:32:25.292Z,18.90
2022-08-22T16:34:52.624Z,19.00
2022-08-22T16:37:42.452Z,19.00
2022-08-22T16:40:15.705Z,18.90
2022-08-22T16:43:09.590Z,18.80
2022-08-22T16:45:40.707Z,18.90
2022-08-22T16:48:36.266Z,18.90
2022-08-22T16:51:13.844Z,18.90
2022-08-22T16:54:01.087Z,18.90
2022-08-22T16:57:00.962Z,18.90
2022-08-22T17:00:00.575Z,18.90
2022-08-22T17:02:56.746Z,18.90
2022-08-22T17:05:55.508Z,18.90
2022-08-22T17:08:46.541Z,18.90
2022-08-22T17:12:03.398Z,19.00
2022-08-22T17:14:56.591Z,19.00
2022-08-22T17:17:47.004Z,19.00
2022-08-22T17:20:14.381Z,19.00
2022-08-22T17:23:08.057Z,18.90
2022-08-22T17:25:51.279Z,18.90
2022-08-22T17:28:24.505Z,18.90
2022-08-22T17:31:00.997Z,18.90
2022-08-22T17:33:40.242Z,18.90
2022-08-22T17:36:26.478Z,18.90
2022-08-22T17:39:37.512Z,18.90
2022-08-22T17:42:41.975Z,18.90
2022-08-22T17:45:28.315Z,18.80
2022-08-22T17:48:01.646Z,18.80
2022-08-22T17:50:50.903Z,18.70
2022-08-22T17:53:26.437Z,18.70
2022-08-22T17:56:02.441Z,18.70
2022-08-22T17:58:43.382Z,18.70
2022-08-22T18:01:35.708Z,18.70
2022-08-22T18:04:06.873Z,18.70
2022-08-22T18:06:43.932Z,18.70
2022-08-22T18:09:32.631Z,18.70
2022-08-22T18:12:42.243Z,18.70
2022-08-22T18:15:28.347Z,18.60
2022-08-22T18:18:24.863Z,18.60
2022-08-22T18:21:20.303Z,18.60
2022-08-22T18:24:11.125Z,18.60
2022-08-22T18:26:58.271Z,18.60
2022-08-22T18:29:40.521Z,18.60
2022-08-22T18:32:19.761Z,18.60
2022-08-22T18:34:59.842Z,18.60
2022-08-22T18:37:35.468Z,18.60
2022-08-22T18:40:44.363Z,18.70
2022-08-22T18:43:24.181Z,18.70
2022-08-22T18:45:51.497Z,18.60
2022-08-22T18:48:54.457Z,18.60
2022-08-22T18:51:31.588Z,18.60
2022-08-22T18:54:04.764Z,18.60
2022-08-22T18:56:50.687Z,18.60
2022-08-22T18:59:42.148Z,18.60
2022-08-22T19:02:55.569Z,18.50
2022-08-22T19:06:00.379Z,18.50
2022-08-22T19:09:05.461Z,18.50
2022-08-22T19:11:38.770Z,18.50
2022-08-22T19:14:24.892Z,18.50
2022-08-22T19:17:05.448Z,18.40
2022-08-22T19:20:09.561Z,18.40
2022-08-22T19:22:37.415Z,18.40
2022-08-22T19:25:19.336Z,18.40
2022-08-22T19:28:06.759Z,18.40
2022-08-22T19:30:34.008Z,18.40
2022-08-22T19:33:05.123Z,18.40
2022-08-22T19:35:49.563Z,18.40
2022-08-22T19:38:54.331Z,18.40
2022-08-22T19:41:37.683Z,18.40
2022-08-22T19:44:10.041Z,18.40
2022-08-22T19:46:41.600Z,18.40
2022-08-22T19:49:30.366Z,18.50
2022-08-22T19:52:22.213Z,18.50
2022-08-22T19:54:55.593Z,18.50
2022-08-22T19:57:42.147Z,18.40
2022-08-22T20:00:20.276Z,18.40
2022-08-22T20:03:05.075Z,18.50
2022-08-22T20:06:00.087Z,18.40
2022-08-22T20:08:57.483Z,18.50
2022-08-22T20:11:46.773Z,18.40
2022-08-22T20:14:30.295Z,18.40
2022-08-22T20:17:01.198Z,18.40
2022-08-22T20:19:41.027Z,18.40
2022-08-22T20:22:14.547Z,18.40
2022-08-22T20:24:51.213Z,18.40
2022-08-22T20:27:27.913Z,18.40
2022-08-22T20:30:14.512Z,18.40
2022-08-22T20:33:14.770Z,18.40
2022-08-22T20:35:50.557Z,18.40
2022-08-22T20:38:23.288Z,18.40
2022-08-22T20:41:11.649Z,18.30
2022-08-22T20:43:43.160Z,18.40
2022-08-22T20:46:35.371Z,18.30
2022-08-22T20:49:03.711Z,18.40
2022-08-22T20:51:55.462Z,18.40
2022-08-22T20:54:26.426Z,18.40
2022-08-22T20:57:00.266Z,18.50
2022-08-22T20:59:37.938Z,18.50
2022-08-22T21:02:08.355Z,18.50
2022-08-22T21:05:00.140Z,18.40
2022-08-22T21:07:34.879Z,18.50
2022-08-22T21:10:45.382Z,18.50
2022-08-22T21:13:20.933Z,18.50
2022-08-22T21:16:00.762Z,18.50
2022-08-22T21:18:31.138Z,18.50
2022-08-22T21:21:17.091Z,18.50
2022-08-22T21:24:04.149Z,18.50
2022-08-22T21:26:51.706Z,18.40
2022-08-22T21:29:26.396Z,18.50
2022-08-22T21:32:13.428Z,18.50
2022-08-22T21:34:46.747Z,18.40
2022-08-22T21:37:23.476Z,18.40
2022-08-22T21:39:58.608Z,18.40
2022-08-22T21:42:40.070Z,18.50
2022-08-22T21:45:11.189Z,18.40
2022-08-22T21:47:41.853Z,18.40
2022-08-22T21:50:21.074Z,18.50
2022-08-22T21:53:02.286Z,18.50
2022-08-22T21:55:42.762Z,18.50
2022-08-22T21:58:18.443Z,18.50
2022-08-22T22:01:30.612Z,18.50
2022-08-22T22:03:59.548Z,18.50
2022-08-22T22:06:27.385Z,18.50
2022-08-22T22:08:55.187Z,18.50
2022-08-22T22:11:22.490Z,18.50
2022-08-22T22:13:49.982Z,18.50
2022-08-22T22:16:23.348Z,18.50
2022-08-22T22:18:50.641Z,18.50
2022-08-22T22:21:18.155Z,18.50
2022-08-22T22:23:45.411Z,18.60
2022-08-22T22:26:13.814Z,18.50
2022-08-22T22:28:47.657Z,18.50
2022-08-22T22:31:18.153Z,18.60
2022-08-22T22:33:46.142Z,18.60
2022-08-22T22:36:20.735Z,18.60
2022-08-22T22:38:51.978Z,18.60
2022-08-22T22:41:23.339Z,18.60
2022-08-22T22:43:51.206Z,18.60
2022-08-22T22:46:18.816Z,18.60
2022-08-22T22:48:46.156Z,18.60
2022-08-22T22:51:13.988Z,18.60
2022-08-22T22:53:43.006Z,18.60
2022-08-22T22:56:17.248Z,18.60
2022-08-22T22:58:50.595Z,18.60
2022-08-22T23:01:27.622Z,18.60
2022-08-22T23:03:56.961Z,18.50
2022-08-22T23:06:26.371Z,18.50
2022-08-22T23:08:54.692Z,18.50
2022-08-22T23:11:29.005Z,18.50
2022-08-22T23:13:56.719Z,18.40
2022-08-22T23:16:27.849Z,18.30
2022-08-22T23:18:56.145Z,18.20
2022-08-22T23:21:28.795Z,18.10
2022-08-22T23:23:58.413Z,18.00
2022-08-22T23:26:26.173Z,18.00
2022-08-22T23:28:53.590Z,17.90
2022-08-22T23:31:34.334Z,17.90
2022-08-22T23:34:06.126Z,17.90
2022-08-22T23:36:34.320Z,17.80
2022-08-22T23:39:01.811Z,17.90
2022-08-22T23:41:29.216Z,17.90
2022-08-22T23:43:56.518Z,17.90
2022-08-22T23:46:25.530Z,17.90
2022-08-22T23:48:53.348Z,17.90
2022-08-22T23:51:24.220Z,18.00
2022-08-22T23:53:53.663Z,18.00
2022-08-22T23:56:32.692Z,18.00
2022-08-22T23:59:01.903Z,18.00
